Time,TemperatureF,DewpointF,PressureIn,WindDirection,WindDirectionDegrees,WindSpeedMPH,WindSpeedGustMPH,Humidity,HourlyPrecipIn,Conditions,Clouds,dailyrainin,SoftwareType,DateUTC
2013-01-10 00:03:00,44.1,38.0,30.45,ENE,63,4.5,6.0,79,0.00,,CLR,0.00,VWS V14.01,2013-01-10 06:03:00,
2013-01-10 00:08:00,44.1,38.0,30.45,ENE,63,0.0,6.0,79,0.00,,CLR,0.00,VWS V14.01,2013-01-10 06:08:00,
2013-01-10 00:13:00,44.1,38.0,30.45,ENE,63,0.0,6.0,79,0.00,,CLR,0.00,VWS V14.01,2013-01-10 06:13:00,
2013-01-10 00:18:00,44.1,38.0,30.45,ENE,63,0.0,6.0,79,0.00,,CLR,0.00,VWS V14.01,2013-01-10 06:18:00,
2013-01-10 00:23:00,44.1,38.0,30.44,NNE,32,1.5,10.5,79,0.00,,CLR,0.00,VWS V14.01,2013-01-10 06:23:00,
2013-01-10 00:28:00,44.1,38.0,30.43,NE,36,6.0,10.5,79,0.00,,CLR,0.00,VWS V14.01,2013-01-10 06:28:00,
2013-01-10 00:33:00,44.1,38.0,30.43,NE,37,1.5,6.0,79,0.00,,CLR,0.00,VWS V14.01,2013-01-10 06:33:00,
2013-01-10 00:38:00,44.1,37.7,30.43,NE,38,0.0,6.0,78,0.00,,CLR,0.00,VWS V14.01,2013-01-10 06:38:00,
2013-01-10 00:43:00,44.0,37.6,30.43,NE,42,7.5,7.5,78,0.00,,CLR,0.00,VWS V14.01,2013-01-10 06:43:00,
2013-01-10 00:48:00,44.0,37.6,30.43,NE,36,0.0,9.0,78,0.00,,CLR,0.00,VWS V14.01,2013-01-10 06:48:00,
2013-01-10 00:53:00,44.1,37.7,30.43,NE,45,0.0,9.0,78,0.00,,CLR,0.00,VWS V14.01,2013-01-10 06:53:00,
2013-01-10 00:58:00,44.1,37.4,30.42,ENE,71,10.5,10.5,77,0.00,,CLR,0.00,VWS V14.01,2013-01-10 06:58:00,
2013-01-10 01:03:00,44.1,37.4,30.42,ENE,74,6.0,10.5,77,0.00,,CLR,0.00,VWS V14.01,2013-01-10 07:03:00,
2013-01-10 01:08:00,44.2,37.5,30.42,NE,47,3.0,10.5,77,0.00,,CLR,0.00,VWS V14.01,2013-01-10 07:08:00,
2013-01-10 01:13:00,44.2,37.5,30.42,ENE,57,0.0,10.5,77,0.00,,CLR,0.00,VWS V14.01,2013-01-10 07:13:00,
2013-01-10 01:18:00,44.2,37.5,30.41,NE,38,0.0,10.5,77,0.00,,CLR,0.00,VWS V14.01,2013-01-10 07:18:00,
2013-01-10 01:23:00,44.2,37.5,30.41,NE,34,0.0,10.5,77,0.00,,CLR,0.00,VWS V14.01,2013-01-10 07:23:00,
2013-01-10 01:28:00,44.2,37.5,30.41,NE,46,0.0,10.5,77,0.00,,CLR,0.00,VWS V14.01,2013-01-10 07:28:00,
2013-01-10 01:34:00,44.2,37.1,30.42,East,92,0.0,10.5,76,0.00,,CLR,0.00,VWS V14.01,2013-01-10 07:34:00,
2013-01-10 01:39:00,44.3,37.6,30.41,East,91,0.0,10.5,77,0.00,,CLR,0.00,VWS V14.01,2013-01-10 07:39:00,
2013-01-10 01:44:00,44.3,37.6,30.41,NE,44,6.0,10.5,77,0.00,,CLR,0.00,VWS V14.01,2013-01-10 07:44:00,
2013-01-10 01:49:00,44.3,37.2,30.41,East,81,0.0,10.5,76,0.00,,CLR,0.00,VWS V14.01,2013-01-10 07:49:00,
2013-01-10 01:54:00,44.4,37.3,30.41,NE,55,0.0,10.5,76,0.00,,CLR,0.00,VWS V14.01,2013-01-10 07:54:00,
2013-01-10 01:59:00,44.3,37.2,30.41,East,86,1.5,10.5,76,0.00,,CLR,0.00,VWS V14.01,2013-01-10 07:59:00,
2013-01-10 02:04:00,44.3,37.2,30.41,ENE,76,0.0,7.5,76,0.00,,FEW110,0.00,VWS V14.01,2013-01-10 08:04:00,
2013-01-10 02:09:00,44.4,37.3,30.41,ENE,78,3.0,7.5,76,0.00,,FEW110,0.00,VWS V14.01,2013-01-10 08:09:00,
2013-01-10 02:14:00,44.5,37.1,30.41,East,90,0.0,7.5,75,0.00,,FEW110,0.00,VWS V14.01,2013-01-10 08:14:00,
2013-01-10 02:19:00,44.5,37.1,30.41,East,82,0.0,7.5,75,0.00,,FEW110,0.00,VWS V14.01,2013-01-10 08:19:00,
2013-01-10 02:24:00,44.5,37.1,30.41,East,89,1.5,7.5,75,0.00,,FEW110,0.00,VWS V14.01,2013-01-10 08:24:00,
2013-01-10 02:29:00,44.6,36.8,30.40,East,92,0.0,0.0,74,0.00,,FEW110,0.00,VWS V14.01,2013-01-10 08:29:00,
2013-01-10 02:34:00,44.7,36.9,30.40,East,88,0.0,9.0,74,0.00,,FEW110,0.00,VWS V14.01,2013-01-10 08:34:00,
2013-01-10 02:39:00,44.7,36.9,30.40,ENE,74,0.0,9.0,74,0.00,,FEW110,0.00,VWS V14.01,2013-01-10 08:39:00,
2013-01-10 02:44:00,44.7,36.9,30.40,East,81,1.5,9.0,74,0.00,,FEW110,0.00,VWS V14.01,2013-01-10 08:44:00,
2013-01-10 02:49:00,44.7,36.6,30.40,East,94,0.0,9.0,73,0.00,,FEW110,0.00,VWS V14.01,2013-01-10 08:49:00,
2013-01-10 02:54:00,44.7,36.6,30.40,East,100,0.0,9.0,73,0.00,,FEW110,0.00,VWS V14.01,2013-01-10 08:54:00,
2013-01-10 02:59:00,44.7,36.9,30.40,ENE,77,0.0,3.0,74,0.00,,OVC037,0.00,VWS V14.01,2013-01-10 08:59:00,
2013-01-10 03:04:00,44.7,36.9,30.40,East,80,0.0,3.0,74,0.00,,OVC037,0.00,VWS V14.01,2013-01-10 09:04:00,
2013-01-10 03:09:00,44.7,36.9,30.39,East,86,0.0,3.0,74,0.00,,OVC037,0.00,VWS V14.01,2013-01-10 09:09:00,
2013-01-10 03:14:00,44.6,36.8,30.39,East,86,0.0,4.5,74,0.00,,OVC037,0.00,VWS V14.01,2013-01-10 09:14:00,
2013-01-10 03:19:00,44.6,36.8,30.38,East,88,0.0,4.5,74,0.00,,OVC037,0.00,VWS V14.01,2013-01-10 09:19:00,
2013-01-10 03:24:00,44.6,36.8,30.38,East,88,0.0,4.5,74,0.00,,OVC037,0.00,VWS V14.01,2013-01-10 09:24:00,
2013-01-10 03:29:00,44.6,36.8,30.37,East,88,0.0,1.5,74,0.00,,OVC037,0.00,VWS V14.01,2013-01-10 09:29:00,
2013-01-10 03:34:00,44.6,36.5,30.37,East,86,1.5,4.5,73,0.00,,OVC037,0.00,VWS V14.01,2013-01-10 09:34:00,
2013-01-10 03:39:00,44.6,36.5,30.37,East,87,3.0,4.5,73,0.00,,OVC037,0.00,VWS V14.01,2013-01-10 09:39:00,
2013-01-10 03:44:00,44.6,36.2,30.36,East,83,0.0,7.5,72,0.00,,OVC037,0.00,VWS V14.01,2013-01-10 09:44:00,
2013-01-10 03:49:00,44.7,36.2,30.35,ENE,78,4.5,7.5,72,0.00,,OVC037,0.00,VWS V14.01,2013-01-10 09:49:00,
2013-01-10 03:54:00,44.7,36.2,30.35,East,85,0.0,7.5,72,0.00,,-RA,0.00,VWS V14.01,2013-01-10 09:54:00,
2013-01-10 03:59:00,44.8,36.0,30.35,East,95,0.0,3.0,71,0.00,,-RA,0.00,VWS V14.01,2013-01-10 09:59:00,
2013-01-10 04:04:00,44.8,36.0,30.35,NE,40,6.0,9.0,71,0.00,,-RA,0.00,VWS V14.01,2013-01-10 10:04:00,
2013-01-10 04:10:00,44.9,36.4,30.35,ENE,76,0.0,9.0,72,0.00,,-RA,0.00,VWS V14.01,2013-01-10 10:10:00,
2013-01-10 04:15:00,44.8,36.3,30.35,East,88,0.0,9.0,72,0.00,,-RA,0.00,VWS V14.01,2013-01-10 10:15:00,
2013-01-10 04:20:00,44.8,36.7,30.35,ESE,108,0.0,9.0,73,0.00,,-RA,0.00,VWS V14.01,2013-01-10 10:20:00,
2013-01-10 04:25:00,44.7,36.9,30.35,East,95,0.0,9.0,74,0.00,,-RA,0.00,VWS V14.01,2013-01-10 10:25:00,
2013-01-10 04:30:00,44.6,37.2,30.34,East,92,0.0,3.0,75,0.00,,-RA,0.00,VWS V14.01,2013-01-10 10:30:00,
2013-01-10 04:35:00,44.6,37.2,30.34,East,88,0.0,7.5,75,0.00,,-RA,0.00,VWS V14.01,2013-01-10 10:35:00,
2013-01-10 04:40:00,44.6,37.2,30.33,East,85,3.0,7.5,75,0.00,,-RA,0.00,VWS V14.01,2013-01-10 10:40:00,
2013-01-10 04:45:00,44.6,37.2,30.33,NNE,33,0.0,7.5,75,0.00,,-RA,0.00,VWS V14.01,2013-01-10 10:45:00,
2013-01-10 04:50:00,44.5,37.1,30.32,East,87,0.0,7.5,75,0.00,,-RA,0.00,VWS V14.01,2013-01-10 10:50:00,
2013-01-10 04:55:00,44.5,37.1,30.32,East,88,0.0,7.5,75,0.00,,-RA,0.00,VWS V14.01,2013-01-10 10:55:00,
2013-01-10 05:00:00,44.4,37.3,30.32,East,98,0.0,6.0,76,0.00,,OVC095,0.00,VWS V14.01,2013-01-10 11:00:00,
2013-01-10 05:05:00,44.5,37.4,30.31,ENE,72,0.0,6.0,76,0.00,,OVC095,0.00,VWS V14.01,2013-01-10 11:05:00,
2013-01-10 05:10:00,44.4,37.3,30.31,East,88,1.5,7.5,76,0.00,,OVC095,0.00,VWS V14.01,2013-01-10 11:10:00,
2013-01-10 05:15:00,44.4,37.3,30.30,ENE,76,0.0,9.0,76,0.00,,OVC095,0.00,VWS V14.01,2013-01-10 11:15:00,
2013-01-10 05:20:00,44.5,37.4,30.30,East,92,3.0,10.5,76,0.00,,OVC095,0.00,VWS V14.01,2013-01-10 11:20:00,
2013-01-10 05:25:00,44.4,37.3,30.30,East,86,0.0,10.5,76,0.00,,OVC095,0.00,VWS V14.01,2013-01-10 11:25:00,
2013-01-10 05:30:00,44.3,37.6,30.30,ENE,71,1.5,9.0,77,0.00,,OVC095,0.00,VWS V14.01,2013-01-10 11:30:00,
2013-01-10 05:35:00,44.3,37.6,30.30,East,94,0.0,10.5,77,0.00,,OVC095,0.00,VWS V14.01,2013-01-10 11:35:00,
2013-01-10 05:40:00,44.4,37.7,30.30,East,84,7.5,10.5,77,0.00,,OVC095,0.00,VWS V14.01,2013-01-10 11:40:00,
2013-01-10 05:45:00,44.4,37.7,30.30,East,98,6.0,10.5,77,0.00,,OVC095,0.00,VWS V14.01,2013-01-10 11:45:00,
2013-01-10 05:50:00,44.5,38.1,30.30,East,88,4.5,10.5,78,0.00,,OVC095,0.00,VWS V14.01,2013-01-10 11:50:00,
2013-01-10 05:55:00,44.5,38.1,30.30,East,89,0.0,10.5,78,0.00,,-RA,0.00,VWS V14.01,2013-01-10 11:55:00,
2013-01-10 06:00:00,44.6,37.8,30.30,ESE,110,0.0,0.0,77,0.00,,-RA,0.00,VWS V14.01,2013-01-10 12:00:00,
2013-01-10 06:05:00,44.8,38.0,30.30,East,98,0.0,6.0,77,0.00,,-RA,0.00,VWS V14.01,2013-01-10 12:05:00,
2013-01-10 06:10:00,44.8,38.0,30.30,East,86,1.5,6.0,77,0.00,,-RA,0.00,VWS V14.01,2013-01-10 12:10:00,
2013-01-10 06:15:00,44.9,38.1,30.30,East,96,1.5,6.0,77,0.00,,-RA,0.00,VWS V14.01,2013-01-10 12:15:00,
2013-01-10 06:20:00,44.9,38.1,30.29,East,88,4.5,7.5,77,0.00,,-RA,0.00,VWS V14.01,2013-01-10 12:20:00,
2013-01-10 06:25:00,44.8,38.4,30.29,ENE,78,7.5,7.5,78,0.00,,-RA,0.00,VWS V14.01,2013-01-10 12:25:00,
2013-01-10 06:30:00,44.6,38.8,30.29,East,91,0.0,6.0,80,0.01,,-RA,0.01,VWS V14.01,2013-01-10 12:30:00,
2013-01-10 06:35:00,44.5,38.7,30.29,East,97,0.0,12.0,80,0.01,,-RA,0.01,VWS V14.01,2013-01-10 12:35:00,
2013-01-10 06:40:00,44.4,38.9,30.30,East,91,0.0,12.0,81,0.01,,-RA,0.01,VWS V14.01,2013-01-10 12:40:00,
2013-01-10 06:45:00,44.3,39.2,30.30,East,93,0.0,12.0,82,0.01,,-RA,0.01,VWS V14.01,2013-01-10 12:45:00,
2013-01-10 06:50:00,44.2,39.4,30.30,ESE,123,0.0,12.0,83,0.02,,-RA,0.02,VWS V14.01,2013-01-10 12:50:00,
2013-01-10 06:55:00,44.0,39.2,30.30,East,92,0.0,12.0,83,0.03,,-RA,0.03,VWS V14.01,2013-01-10 12:55:00,
2013-01-10 07:00:00,44.0,39.5,30.30,East,79,0.0,0.0,84,0.04,,-RA,0.04,VWS V14.01,2013-01-10 13:00:00,
2013-01-10 07:05:00,43.9,39.7,30.30,East,80,0.0,6.0,85,0.04,,-RA,0.04,VWS V14.01,2013-01-10 13:05:00,
2013-01-10 07:10:00,43.9,39.7,30.30,East,90,3.0,7.5,85,0.04,,-RA,0.04,VWS V14.01,2013-01-10 13:10:00,
2013-01-10 07:15:00,43.8,39.6,30.29,East,92,1.5,7.5,85,0.04,,-RA,0.04,VWS V14.01,2013-01-10 13:15:00,
2013-01-10 07:21:00,43.7,39.5,30.29,East,85,4.5,7.5,85,0.04,,-RA,0.04,VWS V14.01,2013-01-10 13:21:00,
2013-01-10 07:25:00,43.6,39.4,30.29,East,93,0.0,7.5,85,0.04,,-RA,0.04,VWS V14.01,2013-01-10 13:25:00,
2013-01-10 07:31:00,43.5,39.6,30.29,East,90,3.0,10.5,86,0.05,,-RA,0.05,VWS V14.01,2013-01-10 13:31:00,
2013-01-10 07:36:00,43.3,39.4,30.29,East,95,0.0,10.5,86,0.05,,-RA,0.05,VWS V14.01,2013-01-10 13:36:00,
2013-01-10 07:41:00,43.1,39.5,30.29,East,92,0.0,10.5,87,0.05,,-RA,0.05,VWS V14.01,2013-01-10 13:41:00,
2013-01-10 07:46:00,43.1,39.5,30.29,East,90,1.5,10.5,87,0.06,,-RA,0.06,VWS V14.01,2013-01-10 13:46:00,
2013-01-10 07:51:00,43.0,39.7,30.29,East,101,7.5,10.5,88,0.06,,-RA,0.06,VWS V14.01,2013-01-10 13:51:00,
2013-01-10 07:56:00,42.9,39.9,30.28,East,98,3.0,10.5,89,0.06,,OVC013,0.06,VWS V14.01,2013-01-10 13:56:00,
2013-01-10 08:01:00,42.8,39.8,30.28,East,98,0.0,1.5,89,0.02,,OVC013,0.06,VWS V14.01,2013-01-10 14:01:00,
2013-01-10 08:06:00,42.8,39.8,30.28,East,89,0.0,7.5,89,0.02,,OVC013,0.06,VWS V14.01,2013-01-10 14:06:00,
2013-01-10 08:11:00,42.8,40.1,30.28,ESE,104,0.0,9.0,90,0.02,,OVC013,0.06,VWS V14.01,2013-01-10 14:11:00,
2013-01-10 08:16:00,42.8,40.1,30.28,East,86,0.0,9.0,90,0.02,,OVC013,0.06,VWS V14.01,2013-01-10 14:16:00,
2013-01-10 08:21:00,42.8,40.1,30.28,East,97,0.0,9.0,90,0.02,,OVC013,0.06,VWS V14.01,2013-01-10 14:21:00,
2013-01-10 08:26:00,42.9,40.2,30.28,East,89,0.0,9.0,90,0.02,,OVC013,0.06,VWS V14.01,2013-01-10 14:26:00,
2013-01-10 08:31:00,42.9,40.2,30.27,ESE,119,0.0,3.0,90,0.02,,OVC013,0.06,VWS V14.01,2013-01-10 14:31:00,
2013-01-10 08:36:00,43.0,40.3,30.27,SE,140,1.5,6.0,90,0.02,,-RA,0.06,VWS V14.01,2013-01-10 14:36:00,
2013-01-10 08:41:00,43.0,40.3,30.27,ESE,111,0.0,10.5,90,0.02,,-RA,0.06,VWS V14.01,2013-01-10 14:41:00,
2013-01-10 08:46:00,43.1,40.4,30.26,East,88,4.5,10.5,90,0.02,,-RA,0.06,VWS V14.01,2013-01-10 14:46:00,
2013-01-10 08:51:00,43.1,40.4,30.26,ESE,103,0.0,10.5,90,0.02,,-RA,0.06,VWS V14.01,2013-01-10 14:51:00,
2013-01-10 08:56:00,43.2,40.5,30.26,ESE,115,0.0,10.5,90,0.02,,-RA,0.06,VWS V14.01,2013-01-10 14:56:00,
2013-01-10 09:01:00,43.3,40.6,30.26,ESE,114,0.0,6.0,90,0.00,,-RA,0.06,VWS V14.01,2013-01-10 15:01:00,
2013-01-10 09:06:00,43.3,40.6,30.26,ESE,123,0.0,10.5,90,0.00,,-RA,0.06,VWS V14.01,2013-01-10 15:06:00,
2013-01-10 09:11:00,43.4,40.7,30.26,ESE,103,0.0,10.5,90,0.00,, +RA,0.06,VWS V14.01,2013-01-10 15:11:00,
2013-01-10 09:16:00,43.6,40.9,30.26,East,90,0.0,10.5,90,0.00,,-RA,0.06,VWS V14.01,2013-01-10 15:16:00,
2013-01-10 09:21:00,43.7,41.0,30.26,East,101,0.0,10.5,90,0.00,,-RA,0.06,VWS V14.01,2013-01-10 15:21:00,
2013-01-10 09:26:00,43.7,41.2,30.25,ENE,71,6.0,10.5,91,0.05,,-RA,0.11,VWS V14.01,2013-01-10 15:26:00,
2013-01-10 09:31:00,43.7,41.5,30.25,ESE,115,0.0,1.5,92,0.08,,-RA,0.14,VWS V14.01,2013-01-10 15:31:00,
2013-01-10 09:36:00,43.7,41.5,30.25,East,84,1.5,4.5,92,0.10,,-RA,0.16,VWS V14.01,2013-01-10 15:36:00,
2013-01-10 09:41:00,43.8,41.6,30.25,East,92,6.0,6.0,92,0.10,,-RA,0.16,VWS V14.01,2013-01-10 15:41:00,
2013-01-10 09:46:00,43.8,41.9,30.24,East,92,0.0,6.0,93,0.11,,-RA,0.17,VWS V14.01,2013-01-10 15:46:00,
2013-01-10 09:51:00,43.9,42.0,30.24,East,81,0.0,7.5,93,0.11,,-RA,0.17,VWS V14.01,2013-01-10 15:51:00,
2013-01-10 09:56:00,44.0,42.1,30.24,East,95,0.0,7.5,93,0.11,,,0.17,VWS V14.01,2013-01-10 15:56:00,
2013-01-10 10:01:00,44.0,42.1,30.24,East,95,0.0,1.5,93,0.11,,,0.17,VWS V14.01,2013-01-10 16:01:00,
2013-01-10 10:06:00,44.1,42.2,30.24,East,90,0.0,6.0,93,0.11,,,0.17,VWS V14.01,2013-01-10 16:06:00,
2013-01-10 10:11:00,44.3,42.4,30.24,East,89,1.5,6.0,93,0.11,,,0.17,VWS V14.01,2013-01-10 16:11:00,
2013-01-10 10:16:00,44.4,42.8,30.24,East,83,0.0,6.0,94,0.11,,,0.17,VWS V14.01,2013-01-10 16:16:00,
2013-01-10 10:21:00,44.6,43.0,30.23,East,93,0.0,6.0,94,0.11,,,0.17,VWS V14.01,2013-01-10 16:21:00,
2013-01-10 10:26:00,44.7,43.1,30.23,East,94,0.0,6.0,94,0.11,,,0.17,VWS V14.01,2013-01-10 16:26:00,
2013-01-10 10:31:00,44.8,43.2,30.23,ESE,107,1.5,1.5,94,0.03,,,0.17,VWS V14.01,2013-01-10 16:31:00,
2013-01-10 10:36:00,44.9,43.3,30.23,ESE,108,0.0,3.0,94,0.03,,,0.17,VWS V14.01,2013-01-10 16:36:00,
2013-01-10 10:41:00,45.0,43.4,30.23,ESE,105,0.0,6.0,94,0.03,,,0.17,VWS V14.01,2013-01-10 16:41:00,
2013-01-10 10:46:00,45.1,43.5,30.22,ESE,104,0.0,6.0,94,0.03,,,0.17,VWS V14.01,2013-01-10 16:46:00,
2013-01-10 10:51:00,45.1,43.5,30.22,East,97,0.0,6.0,94,0.03,,,0.17,VWS V14.01,2013-01-10 16:51:00,
2013-01-10 10:56:00,45.1,43.5,30.22,SE,132,0.0,7.5,94,0.03,,,0.17,VWS V14.01,2013-01-10 16:56:00,
2013-01-10 11:01:00,45.2,43.6,30.21,ESE,114,0.0,1.5,94,0.00,,-RA,0.17,VWS V14.01,2013-01-10 17:01:00,
2013-01-10 11:06:00,45.2,43.6,30.21,East,93,0.0,3.0,94,0.00,,-RA,0.17,VWS V14.01,2013-01-10 17:06:00,
2013-01-10 11:11:00,45.4,43.8,30.20,ESE,109,0.0,3.0,94,0.00,,-RA,0.17,VWS V14.01,2013-01-10 17:11:00,
2013-01-10 11:17:00,45.4,43.8,30.19,ESE,118,0.0,3.0,94,0.00,,-RA,0.17,VWS V14.01,2013-01-10 17:17:00,
2013-01-10 11:22:00,45.5,43.9,30.19,East,98,0.0,3.0,94,0.00,,-RA,0.17,VWS V14.01,2013-01-10 17:22:00,
2013-01-10 11:27:00,45.5,43.9,30.18,East,98,0.0,3.0,94,0.00,,-RA,0.17,VWS V14.01,2013-01-10 17:27:00,
2013-01-10 11:32:00,45.6,44.0,30.18,East,98,0.0,0.0,94,0.00,,-RA,0.17,VWS V14.01,2013-01-10 17:32:00,
2013-01-10 11:37:00,45.6,44.0,30.17,East,98,0.0,1.5,94,0.00,,-RA,0.17,VWS V14.01,2013-01-10 17:37:00,
2013-01-10 11:42:00,45.7,44.1,30.17,East,94,0.0,7.5,94,0.00,,-RA,0.17,VWS V14.01,2013-01-10 17:42:00,
2013-01-10 11:47:00,45.8,44.2,30.16,East,94,0.0,7.5,94,0.00,,-RA,0.17,VWS V14.01,2013-01-10 17:47:00,
2013-01-10 11:52:00,45.9,44.5,30.16,East,99,0.0,7.5,95,0.00,,-RA,0.17,VWS V14.01,2013-01-10 17:52:00,
2013-01-10 11:57:00,46.0,44.7,30.16,East,97,0.0,7.5,95,0.00,,-RA,0.17,VWS V14.01,2013-01-10 17:57:00,
2013-01-10 12:02:00,46.0,44.7,30.16,East,97,0.0,3.0,95,0.01,,,0.18,VWS V14.01,2013-01-10 18:02:00,
2013-01-10 12:07:00,46.1,44.8,30.15,East,97,0.0,3.0,95,0.01,,,0.18,VWS V14.01,2013-01-10 18:07:00,
2013-01-10 12:12:00,46.2,44.8,30.15,East,97,0.0,3.0,95,0.01,,,0.18,VWS V14.01,2013-01-10 18:12:00,
2013-01-10 12:17:00,46.4,45.0,30.14,East,97,0.0,3.0,95,0.01,,,0.18,VWS V14.01,2013-01-10 18:17:00,
2013-01-10 12:22:00,46.5,45.2,30.14,East,90,3.0,3.0,95,0.01,,,0.18,VWS V14.01,2013-01-10 18:22:00,
2013-01-10 12:27:00,46.6,45.2,30.14,East,97,0.0,7.5,95,0.01,,,0.18,VWS V14.01,2013-01-10 18:27:00,
2013-01-10 12:32:00,46.7,45.3,30.13,East,96,0.0,1.5,95,0.01,,,0.18,VWS V14.01,2013-01-10 18:32:00,
2013-01-10 12:37:00,46.8,45.5,30.13,East,90,3.0,6.0,95,0.01,,,0.18,VWS V14.01,2013-01-10 18:37:00,
2013-01-10 12:42:00,46.9,45.5,30.12,East,94,3.0,7.5,95,0.01,,,0.18,VWS V14.01,2013-01-10 18:42:00,
2013-01-10 12:47:00,47.0,45.7,30.12,East,94,0.0,7.5,95,0.01,,,0.18,VWS V14.01,2013-01-10 18:47:00,
2013-01-10 12:52:00,47.1,45.7,30.12,East,93,3.0,7.5,95,0.01,,,0.18,VWS V14.01,2013-01-10 18:52:00,
2013-01-10 12:57:00,47.2,45.8,30.12,East,93,1.5,7.5,95,0.01,,,0.18,VWS V14.01,2013-01-10 18:57:00,
2013-01-10 13:02:00,47.3,45.9,30.12,East,95,0.0,3.0,95,0.01,,,0.18,VWS V14.01,2013-01-10 19:02:00,
2013-01-10 13:07:00,47.4,46.0,30.12,East,95,0.0,3.0,95,0.01,,,0.18,VWS V14.01,2013-01-10 19:07:00,
2013-01-10 13:12:00,47.5,46.1,30.12,East,95,0.0,3.0,95,0.01,,,0.18,VWS V14.01,2013-01-10 19:12:00,
2013-01-10 13:17:00,47.6,46.2,30.12,East,95,3.0,3.0,95,0.01,,,0.18,VWS V14.01,2013-01-10 19:17:00,
2013-01-10 13:22:00,47.7,46.3,30.11,East,93,0.0,6.0,95,0.01,,,0.18,VWS V14.01,2013-01-10 19:22:00,
2013-01-10 13:27:00,47.8,46.4,30.11,East,93,1.5,7.5,95,0.01,,,0.18,VWS V14.01,2013-01-10 19:27:00,
2013-01-10 13:32:00,47.9,46.5,30.11,East,86,0.0,3.0,95,0.00,,,0.18,VWS V14.01,2013-01-10 19:32:00,
2013-01-10 13:37:00,47.9,46.5,30.10,East,94,0.0,3.0,95,0.00,,,0.18,VWS V14.01,2013-01-10 19:37:00,
2013-01-10 13:42:00,48.0,46.6,30.09,ESE,106,0.0,9.0,95,0.00,,,0.18,VWS V14.01,2013-01-10 19:42:00,
2013-01-10 13:47:00,48.0,46.6,30.09,ESE,116,1.5,9.0,95,0.00,,,0.18,VWS V14.01,2013-01-10 19:47:00,
2013-01-10 13:52:00,48.0,46.6,30.09,ESE,109,1.5,9.0,95,0.00,,,0.18,VWS V14.01,2013-01-10 19:52:00,
2013-01-10 13:57:00,48.0,46.6,30.09,ESE,123,7.5,9.0,95,0.00,,,0.18,VWS V14.01,2013-01-10 19:57:00,
2013-01-10 14:02:00,48.1,46.7,30.08,ESE,114,0.0,1.5,95,0.00,,,0.18,VWS V14.01,2013-01-10 20:02:00,
2013-01-10 14:07:00,48.2,46.8,30.08,ESE,106,0.0,6.0,95,0.00,,,0.18,VWS V14.01,2013-01-10 20:07:00,
2013-01-10 14:12:00,48.3,47.2,30.07,ESE,106,0.0,6.0,96,0.00,,,0.18,VWS V14.01,2013-01-10 20:12:00,
2013-01-10 14:17:00,48.4,47.3,30.07,ESE,120,0.0,6.0,96,0.00,,,0.18,VWS V14.01,2013-01-10 20:17:00,
2013-01-10 14:22:00,48.5,47.4,30.06,SE,131,0.0,6.0,96,0.00,,,0.18,VWS V14.01,2013-01-10 20:22:00,
2013-01-10 14:27:00,48.6,47.5,30.06,East,90,1.5,7.5,96,0.00,,,0.18,VWS V14.01,2013-01-10 20:27:00,
2013-01-10 14:32:00,48.8,47.7,30.06,ESE,111,0.0,7.5,96,0.00,,,0.18,VWS V14.01,2013-01-10 20:32:00,
2013-01-10 14:37:00,49.3,48.2,30.06,East,99,1.5,7.5,96,0.00,,,0.18,VWS V14.01,2013-01-10 20:37:00,
2013-01-10 14:43:00,49.5,48.4,30.05,East,99,0.0,7.5,96,0.00,,,0.18,VWS V14.01,2013-01-10 20:43:00,
2013-01-10 14:48:00,49.7,48.6,30.05,SE,132,6.0,7.5,96,0.00,,,0.18,VWS V14.01,2013-01-10 20:48:00,
2013-01-10 14:53:00,49.9,48.8,30.04,East,79,0.0,7.5,96,0.00,,,0.18,VWS V14.01,2013-01-10 20:53:00,
2013-01-10 14:58:00,50.1,49.0,30.04,ESE,120,0.0,7.5,96,0.00,,-RA,0.18,VWS V14.01,2013-01-10 20:58:00,
2013-01-10 15:03:00,50.2,49.1,30.04,ESE,119,3.0,7.5,96,0.00,,-RA,0.18,VWS V14.01,2013-01-10 21:03:00,
2013-01-10 15:08:00,50.2,49.1,30.04,ESE,113,0.0,7.5,96,0.00,,-RA,0.18,VWS V14.01,2013-01-10 21:08:00,
2013-01-10 15:13:00,50.3,49.2,30.03,SE,129,0.0,7.5,96,0.00,,-RA,0.18,VWS V14.01,2013-01-10 21:13:00,
2013-01-10 15:18:00,50.5,49.4,30.02,ESE,108,0.0,7.5,96,0.00,,-RA,0.18,VWS V14.01,2013-01-10 21:18:00,
2013-01-10 15:23:00,50.7,49.6,30.02,ESE,115,1.5,7.5,96,0.00,,-RA,0.18,VWS V14.01,2013-01-10 21:23:00,
2013-01-10 15:28:00,50.8,49.7,30.02,East,94,0.0,7.5,96,0.00,,-RA,0.18,VWS V14.01,2013-01-10 21:28:00,
2013-01-10 15:33:00,51.0,49.9,30.01,SE,126,0.0,3.0,96,0.01,,-RA,0.19,VWS V14.01,2013-01-10 21:33:00,
2013-01-10 15:38:00,51.3,50.2,30.01,SE,125,0.0,9.0,96,0.01,,-RA,0.19,VWS V14.01,2013-01-10 21:38:00,
2013-01-10 15:43:00,51.4,50.3,30.01,ESE,117,0.0,9.0,96,0.01,,-RA,0.19,VWS V14.01,2013-01-10 21:43:00,
2013-01-10 15:48:00,51.8,51.0,30.00,East,99,1.5,9.0,97,0.01,,-RA,0.19,VWS V14.01,2013-01-10 21:48:00,
2013-01-10 15:53:00,52.0,51.2,30.00,ESE,109,3.0,9.0,97,0.01,,-RA,0.19,VWS V14.01,2013-01-10 21:53:00,
2013-01-10 15:58:00,52.3,51.2,29.99,ESE,111,0.0,9.0,96,0.01,,,0.19,VWS V14.01,2013-01-10 21:58:00,
2013-01-10 16:03:00,52.5,51.7,30.00,SE,136,1.5,7.5,97,0.01,,,0.19,VWS V14.01,2013-01-10 22:03:00,
2013-01-10 16:08:00,52.7,51.9,29.99,SE,132,0.0,7.5,97,0.01,,,0.19,VWS V14.01,2013-01-10 22:08:00,
2013-01-10 16:13:00,52.9,51.8,29.99,SE,131,0.0,7.5,96,0.01,,,0.19,VWS V14.01,2013-01-10 22:13:00,
2013-01-10 16:18:00,53.1,52.3,29.99,SE,131,0.0,7.5,97,0.01,,,0.19,VWS V14.01,2013-01-10 22:18:00,
2013-01-10 16:23:00,53.2,52.4,29.99,SE,129,0.0,9.0,97,0.01,,,0.19,VWS V14.01,2013-01-10 22:23:00,
2013-01-10 16:28:00,53.3,52.5,29.99,SE,129,0.0,9.0,97,0.01,,,0.19,VWS V14.01,2013-01-10 22:28:00,
2013-01-10 16:33:00,53.5,52.4,29.98,ESE,107,0.0,6.0,96,0.00,,,0.19,VWS V14.01,2013-01-10 22:33:00,
2013-01-10 16:38:00,53.7,52.9,29.98,ESE,108,3.0,7.5,97,0.00,,,0.19,VWS V14.01,2013-01-10 22:38:00,
2013-01-10 16:43:00,53.9,53.1,29.97,East,85,0.0,7.5,97,0.00,,,0.19,VWS V14.01,2013-01-10 22:43:00,
2013-01-10 16:48:00,54.0,53.2,29.97,East,89,0.0,7.5,97,0.00,,,0.19,VWS V14.01,2013-01-10 22:48:00,
2013-01-10 16:53:00,54.1,53.3,29.96,East,98,0.0,7.5,97,0.00,,,0.19,VWS V14.01,2013-01-10 22:53:00,
2013-01-10 16:58:00,54.2,53.4,29.97,East,98,0.0,7.5,97,0.00,,,0.19,VWS V14.01,2013-01-10 22:58:00,
2013-01-10 17:03:00,54.3,53.5,29.96,East,98,0.0,1.5,97,0.00,,,0.19,VWS V14.01,2013-01-10 23:03:00,
2013-01-10 17:08:00,54.4,53.6,29.97,East,98,0.0,1.5,97,0.00,,,0.19,VWS V14.01,2013-01-10 23:08:00,
2013-01-10 17:13:00,54.4,53.6,29.96,East,98,0.0,3.0,97,0.00,,,0.19,VWS V14.01,2013-01-10 23:13:00,
2013-01-10 17:18:00,54.6,53.8,29.96,East,98,0.0,3.0,97,0.00,,,0.19,VWS V14.01,2013-01-10 23:18:00,
2013-01-10 17:23:00,54.8,54.0,29.96,East,98,0.0,3.0,97,0.00,,,0.19,VWS V14.01,2013-01-10 23:23:00,
2013-01-10 17:29:00,54.8,54.0,29.96,East,98,0.0,3.0,97,0.00,,,0.19,VWS V14.01,2013-01-10 23:29:00,
2013-01-10 17:34:00,55.0,54.2,29.96,East,98,0.0,1.5,97,0.00,,OVC013,0.19,VWS V14.01,2013-01-10 23:34:00,
2013-01-10 17:39:00,55.1,54.3,29.96,East,98,0.0,3.0,97,0.00,,OVC013,0.19,VWS V14.01,2013-01-10 23:39:00,
2013-01-10 17:44:00,55.5,54.7,29.95,East,98,1.5,3.0,97,0.00,,OVC013,0.19,VWS V14.01,2013-01-10 23:44:00,
2013-01-10 17:49:00,55.8,55.0,29.95,East,98,6.0,6.0,97,0.00,,OVC013,0.19,VWS V14.01,2013-01-10 23:49:00,
2013-01-10 17:54:00,56.3,55.5,29.95,East,98,1.5,6.0,97,0.00,,OVC013,0.19,VWS V14.01,2013-01-10 23:54:00,
2013-01-10 17:59:00,56.7,55.9,29.95,ESE,120,7.5,7.5,97,0.00,,OVC019,0.19,VWS V14.01,2013-01-10 23:59:00,
2013-01-10 18:04:00,57.3,56.5,29.95,SE,146,0.0,6.0,97,0.00,,OVC019,0.19,VWS V14.01,2013-01-11 00:04:00,
2013-01-10 18:09:00,57.7,56.9,29.94,SE,146,0.0,6.0,97,0.00,,OVC019,0.19,VWS V14.01,2013-01-11 00:09:00,
2013-01-10 18:14:00,57.7,56.9,29.93,SE,146,0.0,6.0,97,0.00,,OVC019,0.19,VWS V14.01,2013-01-11 00:14:00,
2013-01-10 18:19:00,57.5,56.7,29.93,SE,145,0.0,6.0,97,0.00,,OVC019,0.19,VWS V14.01,2013-01-11 00:19:00,
2013-01-10 18:24:00,57.3,56.5,29.93,SE,145,0.0,6.0,97,0.00,,OVC030,0.19,VWS V14.01,2013-01-11 00:24:00,
2013-01-10 18:29:00,57.2,56.4,29.93,SE,145,0.0,6.0,97,0.00,,OVC030,0.19,VWS V14.01,2013-01-11 00:29:00,
2013-01-10 18:34:00,57.1,56.3,29.93,SE,145,0.0,1.5,97,0.00,,OVC030,0.19,VWS V14.01,2013-01-11 00:34:00,
2013-01-10 18:39:00,57.1,56.3,29.94,SE,145,0.0,1.5,97,0.00,,OVC030,0.19,VWS V14.01,2013-01-11 00:39:00,
2013-01-10 18:44:00,57.2,56.4,29.93,SE,145,0.0,1.5,97,0.00,,OVC030,0.19,VWS V14.01,2013-01-11 00:44:00,
2013-01-10 18:49:00,57.2,56.4,29.93,SE,145,0.0,1.5,97,0.00,,OVC030,0.19,VWS V14.01,2013-01-11 00:49:00,
2013-01-10 18:54:00,57.2,56.4,29.93,SE,145,0.0,3.0,97,0.00,,OVC028,0.19,VWS V14.01,2013-01-11 00:54:00,
2013-01-10 18:59:00,57.3,56.5,29.93,SE,145,0.0,0.0,97,0.00,,OVC028,0.19,VWS V14.01,2013-01-11 00:59:00,
2013-01-10 19:04:00,57.3,56.5,29.93,SE,145,0.0,0.0,97,0.00,,OVC028,0.19,VWS V14.01,2013-01-11 01:04:00,
2013-01-10 19:09:00,57.3,56.5,29.92,SE,145,0.0,1.5,97,0.00,,OVC028,0.19,VWS V14.01,2013-01-11 01:09:00,
2013-01-10 19:14:00,57.3,56.5,29.92,SE,145,0.0,1.5,97,0.00,,OVC028,0.19,VWS V14.01,2013-01-11 01:14:00,
2013-01-10 19:19:00,57.3,56.5,29.92,SE,145,0.0,1.5,97,0.00,,OVC028,0.19,VWS V14.01,2013-01-11 01:19:00,
2013-01-10 19:24:00,57.3,56.5,29.92,SE,145,0.0,3.0,97,0.00,,OVC028,0.19,VWS V14.01,2013-01-11 01:24:00,
2013-01-10 19:29:00,57.4,56.6,29.91,SE,145,0.0,0.0,97,0.00,,OVC028,0.19,VWS V14.01,2013-01-11 01:29:00,
2013-01-10 19:34:00,57.4,56.6,29.91,SE,145,0.0,1.5,97,0.00,,OVC028,0.19,VWS V14.01,2013-01-11 01:34:00,
2013-01-10 19:39:00,57.5,56.7,29.92,SE,145,0.0,1.5,97,0.00,,OVC028,0.19,VWS V14.01,2013-01-11 01:39:00,
2013-01-10 19:44:00,57.4,56.6,29.92,SE,145,0.0,1.5,97,0.00,,OVC028,0.19,VWS V14.01,2013-01-11 01:44:00,
2013-01-10 19:49:00,56.9,55.8,29.92,SE,145,0.0,1.5,96,0.00,,OVC028,0.19,VWS V14.01,2013-01-11 01:49:00,
2013-01-10 19:54:00,56.5,55.4,29.92,SE,145,0.0,6.0,96,0.00,,OVC028,0.19,VWS V14.01,2013-01-11 01:54:00,
2013-01-10 19:59:00,56.3,55.5,29.92,SE,145,0.0,0.0,97,0.00,,-RA,0.19,VWS V14.01,2013-01-11 01:59:00,
2013-01-10 20:04:00,56.3,55.5,29.92,SE,145,0.0,0.0,97,0.00,,-RA,0.19,VWS V14.01,2013-01-11 02:04:00,
2013-01-10 20:09:00,56.3,55.5,29.92,SE,145,0.0,3.0,97,0.00,,-RA,0.19,VWS V14.01,2013-01-11 02:09:00,
2013-01-10 20:14:00,56.3,55.5,29.92,SE,145,0.0,3.0,97,0.00,,-RA,0.19,VWS V14.01,2013-01-11 02:14:00,
2013-01-10 20:19:00,56.2,55.4,29.92,SE,145,0.0,3.0,97,0.00,,-RA,0.19,VWS V14.01,2013-01-11 02:19:00,
2013-01-10 20:24:00,56.2,55.4,29.92,SE,145,0.0,3.0,97,0.00,,-RA,0.19,VWS V14.01,2013-01-11 02:24:00,
2013-01-10 20:29:00,56.3,55.5,29.91,SE,145,0.0,0.0,97,0.00,,-RA,0.19,VWS V14.01,2013-01-11 02:29:00,
2013-01-10 20:34:00,56.4,55.6,29.91,SE,145,0.0,1.5,97,0.00,,-RA,0.19,VWS V14.01,2013-01-11 02:34:00,
2013-01-10 20:39:00,56.7,55.9,29.90,SE,145,0.0,1.5,97,0.00,,-RA,0.19,VWS V14.01,2013-01-11 02:39:00,
2013-01-10 20:44:00,56.9,56.1,29.90,SE,145,0.0,1.5,97,0.00,,-RA,0.19,VWS V14.01,2013-01-11 02:44:00,
2013-01-10 20:49:00,57.0,56.2,29.89,SE,145,0.0,1.5,97,0.00,,-RA,0.19,VWS V14.01,2013-01-11 02:49:00,
2013-01-10 20:54:00,57.2,56.4,29.89,SE,145,0.0,1.5,97,0.00,,-RA,0.19,VWS V14.01,2013-01-11 02:54:00,
2013-01-10 21:00:00,57.5,56.7,29.89,SE,145,0.0,0.0,97,0.00,,-RA,0.19,VWS V14.01,2013-01-11 03:00:00,
2013-01-10 21:05:00,57.8,57.0,29.89,SE,145,0.0,1.5,97,0.01,,-RA,0.20,VWS V14.01,2013-01-11 03:05:00,
2013-01-10 21:10:00,58.1,57.3,29.89,SE,145,0.0,3.0,97,0.01,,-RA,0.20,VWS V14.01,2013-01-11 03:10:00,
2013-01-10 21:15:00,58.5,57.7,29.88,SE,145,0.0,3.0,97,0.01,,-RA,0.20,VWS V14.01,2013-01-11 03:15:00,
2013-01-10 21:20:00,58.7,57.8,29.88,SE,145,1.5,6.0,97,0.01,,-RA,0.20,VWS V14.01,2013-01-11 03:20:00,
2013-01-10 21:25:00,58.9,58.0,29.88,SE,145,1.5,6.0,97,0.01,,-RA,0.20,VWS V14.01,2013-01-11 03:25:00,
2013-01-10 21:30:00,59.1,58.2,29.87,SE,145,1.5,6.0,97,0.01,,-RA,0.20,VWS V14.01,2013-01-11 03:30:00,
2013-01-10 21:35:00,59.2,58.3,29.87,SE,145,0.0,6.0,97,0.01,,-RA,0.20,VWS V14.01,2013-01-11 03:35:00,
2013-01-10 21:40:00,59.3,58.5,29.87,SE,145,0.0,7.5,97,0.01,,-RA,0.20,VWS V14.01,2013-01-11 03:40:00,
2013-01-10 21:45:00,59.5,58.7,29.86,SE,145,0.0,7.5,97,0.01,,-RA,0.20,VWS V14.01,2013-01-11 03:45:00,
2013-01-10 21:50:00,59.5,58.7,29.85,ESE,109,3.0,7.5,97,0.01,,-RA,0.20,VWS V14.01,2013-01-11 03:50:00,
2013-01-10 21:55:00,59.6,58.8,29.84,ESE,110,0.0,7.5,97,0.01,,-RA,0.20,VWS V14.01,2013-01-11 03:55:00,
2013-01-10 22:00:00,59.7,58.8,29.84,ESE,119,6.0,16.5,97,0.01,,-RA,0.20,VWS V14.01,2013-01-11 04:00:00,
2013-01-10 22:05:00,60.0,59.2,29.84,SE,132,9.0,16.5,97,0.01,,-RA,0.20,VWS V14.01,2013-01-11 04:05:00,
2013-01-10 22:10:00,60.1,59.2,29.83,SSE,154,0.0,16.5,97,0.01,,-RA,0.20,VWS V14.01,2013-01-11 04:10:00,
2013-01-10 22:15:00,60.3,59.5,29.83,South,186,6.0,16.5,97,0.01,,-RA,0.20,VWS V14.01,2013-01-11 04:15:00,
2013-01-10 22:20:00,60.3,59.5,29.83,South,169,9.0,16.5,97,0.01,,-RA,0.20,VWS V14.01,2013-01-11 04:20:00,
2013-01-10 22:25:00,60.4,59.5,29.83,SSE,157,3.0,16.5,97,0.01,,-RA,0.20,VWS V14.01,2013-01-11 04:25:00,
2013-01-10 22:30:00,60.5,59.7,29.83,SE,144,7.5,10.5,97,0.00,,-RA,0.20,VWS V14.01,2013-01-11 04:30:00,
2013-01-10 22:35:00,60.6,59.8,29.82,SSE,147,9.0,12.0,97,0.00,,-RA,0.20,VWS V14.01,2013-01-11 04:35:00,
2013-01-10 22:40:00,60.8,60.0,29.82,SSE,150,10.5,19.5,97,0.00,,-RA,0.20,VWS V14.01,2013-01-11 04:40:00,
2013-01-10 22:45:00,61.1,60.2,29.82,SSE,150,12.0,19.5,97,0.00,,-RA,0.20,VWS V14.01,2013-01-11 04:45:00,
2013-01-10 22:50:00,61.3,60.4,29.81,South,180,6.0,19.5,97,0.00,,-RA,0.20,VWS V14.01,2013-01-11 04:50:00,
2013-01-10 22:55:00,61.5,60.6,29.81,SSE,159,7.5,19.5,97,0.01,,-RA,0.21,VWS V14.01,2013-01-11 04:55:00,
2013-01-10 23:01:00,61.7,60.8,29.81,South,184,16.5,24.0,97,0.01,,-RA,0.21,VWS V14.01,2013-01-11 05:01:00,
2013-01-10 23:03:00,61.9,61.0,29.81,SSE,163,18.0,24.0,97,0.02,,-RA,0.22,VWS V14.01,2013-01-11 05:03:00,
2013-01-10 23:04:00,62.0,61.1,29.82,South,173,22.5,24.0,97,0.02,,-RA,0.22,VWS V14.01,2013-01-11 05:04:00,
2013-01-10 23:09:00,62.1,61.2,29.82,South,175,13.5,36.0,97,0.02,,-RA,0.22,VWS V14.01,2013-01-11 05:09:00,
2013-01-10 23:14:00,62.2,61.0,29.82,South,169,10.5,36.0,96,0.02,,-RA,0.22,VWS V14.01,2013-01-11 05:14:00,
2013-01-10 23:19:00,62.4,61.2,29.81,South,175,16.5,36.0,96,0.02,,-RA,0.22,VWS V14.01,2013-01-11 05:19:00,
2013-01-10 23:24:00,62.5,61.3,29.81,SSW,192,16.5,36.0,96,0.03,,-RA,0.23,VWS V14.01,2013-01-11 05:24:00,
2013-01-10 23:29:00,62.6,61.5,29.81,SSW,213,9.0,10.5,96,0.03,,-RA,0.23,VWS V14.01,2013-01-11 05:29:00,
2013-01-10 23:34:00,62.6,61.2,29.81,SSW,196,12.0,25.5,95,0.03,,-RA,0.23,VWS V14.01,2013-01-11 05:34:00,
2013-01-10 23:39:00,62.5,61.0,29.81,SSW,209,10.5,25.5,95,0.03,,-RA,0.23,VWS V14.01,2013-01-11 05:39:00,
2013-01-10 23:44:00,62.6,60.8,29.82,SSW,202,7.5,25.5,94,0.03,,-RA,0.23,VWS V14.01,2013-01-11 05:44:00,
2013-01-10 23:49:00,62.6,60.8,29.83,SSW,211,9.0,25.5,94,0.03,,-RA,0.23,VWS V14.01,2013-01-11 05:49:00,
2013-01-10 23:54:00,62.6,60.5,29.83,SSW,197,7.5,25.5,93,0.03,,-RA,0.23,VWS V14.01,2013-01-11 05:54:00,
2013-01-10 23:59:00,62.6,60.2,29.83,South,178,7.5,7.5,92,0.02,,OVC110,0.00,VWS V14.01,2013-01-11 05:59:00,